createdAt,value
2023-05-05T00:00:15.289Z,64.74
2023-05-05T00:03:03.900Z,65.16
2023-05-05T00:05:32.660Z,65.36
2023-05-05T00:08:01.083Z,65.58
2023-05-05T00:10:29.580Z,65.76
2023-05-05T00:12:59.119Z,65.98
2023-05-05T00:15:27.744Z,66.18
2023-05-05T00:17:56.404Z,66.38
2023-05-05T00:20:24.837Z,66.55
2023-05-05T00:22:53.329Z,66.79
2023-05-05T00:25:21.851Z,66.73
2023-05-05T00:27:50.344Z,66.80
2023-05-05T00:30:19.502Z,66.99
2023-05-05T00:32:48.920Z,66.86
2023-05-05T00:35:17.972Z,66.68
2023-05-05T00:37:46.980Z,66.73
2023-05-05T00:40:17.722Z,66.75
2023-05-05T00:42:47.097Z,66.84
2023-05-05T00:45:16.789Z,67.14
2023-05-05T00:47:47.955Z,67.59
2023-05-05T00:50:23.362Z,67.82
2023-05-05T00:52:53.035Z,67.87
2023-05-05T00:55:22.094Z,68.18
2023-05-05T00:57:50.890Z,68.43
2023-05-05T01:00:19.429Z,68.68
2023-05-05T01:02:48.154Z,68.65
2023-05-05T01:05:17.261Z,68.84
2023-05-05T01:07:55.520Z,69.08
2023-05-05T01:10:31.372Z,69.18
2023-05-05T01:13:12.972Z,69.16
2023-05-05T01:15:48.019Z,69.06
2023-05-05T01:18:27.006Z,69.12
2023-05-05T01:21:02.592Z,69.45
2023-05-05T01:24:02.468Z,69.69
2023-05-05T01:26:51.912Z,69.95
2023-05-05T01:29:47.167Z,70.09
2023-05-05T01:32:20.618Z,70.20
2023-05-05T01:34:53.536Z,70.30
2023-05-05T01:37:25.091Z,70.39
2023-05-05T01:39:58.533Z,70.41
2023-05-05T01:42:29.706Z,70.07
2023-05-05T01:45:00.213Z,70.24
2023-05-05T01:47:30.125Z,70.53
2023-05-05T01:49:59.608Z,70.95
2023-05-05T01:52:29.646Z,71.14
2023-05-05T01:54:59.898Z,71.24
2023-05-05T01:57:32.518Z,70.99
2023-05-05T02:00:02.997Z,70.94
2023-05-05T02:02:44.949Z,70.77
2023-05-05T02:05:14.375Z,70.79
2023-05-05T02:07:45.226Z,70.61
2023-05-05T02:10:14.950Z,70.56
2023-05-05T02:12:44.927Z,70.79
2023-05-05T02:15:14.031Z,70.95
2023-05-05T02:17:43.307Z,70.87
2023-05-05T02:20:14.459Z,70.98
2023-05-05T02:22:43.450Z,70.91
2023-05-05T02:25:12.201Z,71.24
2023-05-05T02:27:43.597Z,71.12
2023-05-05T02:30:15.726Z,71.21
2023-05-05T02:32:55.114Z,71.20
2023-05-05T02:35:32.749Z,70.83
2023-05-05T02:38:04.915Z,70.68
2023-05-05T02:40:41.897Z,70.82
2023-05-05T02:43:15.297Z,71.03
2023-05-05T02:45:43.912Z,71.03
2023-05-05T02:48:12.646Z,71.34
2023-05-05T02:50:41.435Z,71.14
2023-05-05T02:53:26.248Z,71.08
2023-05-05T02:56:01.883Z,71.29
2023-05-05T02:58:42.365Z,71.58
2023-05-05T03:01:23.608Z,71.61
2023-05-05T03:04:04.377Z,71.61
2023-05-05T03:06:40.264Z,71.44
2023-05-05T03:09:13.756Z,71.31
2023-05-05T03:11:47.800Z,71.48
2023-05-05T03:14:19.308Z,71.43
2023-05-05T03:16:49.940Z,71.55
2023-05-05T03:19:19.919Z,71.78
2023-05-05T03:21:50.537Z,71.79
2023-05-05T03:24:20.392Z,71.79
2023-05-05T03:27:00.866Z,71.89
2023-05-05T03:29:33.018Z,71.90
2023-05-05T03:32:01.782Z,72.09
2023-05-05T03:34:30.938Z,72.23
2023-05-05T03:36:59.925Z,72.27
2023-05-05T03:39:28.473Z,72.35
2023-05-05T03:41:57.547Z,72.59
2023-05-05T03:44:26.799Z,72.39
2023-05-05T03:46:55.389Z,72.43
2023-05-05T03:49:23.964Z,72.33
2023-05-05T03:51:53.635Z,72.25
2023-05-05T03:54:22.098Z,72.30
2023-05-05T03:56:50.684Z,72.21
2023-05-05T03:59:19.244Z,72.06
2023-05-05T04:01:49.203Z,72.06
2023-05-05T04:04:18.445Z,72.08
2023-05-05T04:06:47.352Z,71.93
2023-05-05T04:09:15.859Z,71.73
2023-05-05T04:11:44.897Z,71.58
2023-05-05T04:14:13.555Z,71.45
2023-05-05T04:16:42.079Z,71.49
2023-05-05T04:19:12.437Z,71.57
2023-05-05T04:21:41.460Z,71.34
2023-05-05T04:24:10.680Z,71.34
2023-05-05T04:26:39.249Z,71.23
2023-05-05T04:29:08.857Z,71.59
2023-05-05T04:31:37.493Z,71.42
2023-05-05T04:34:06.529Z,71.00
2023-05-05T04:36:35.312Z,70.93
2023-05-05T04:39:06.148Z,70.54
2023-05-05T04:41:34.849Z,70.14
2023-05-05T04:44:03.816Z,69.76
2023-05-05T04:46:34.169Z,69.32
2023-05-05T04:49:04.431Z,69.06
2023-05-05T04:51:33.365Z,68.94
2023-05-05T04:54:01.900Z,68.40
2023-05-05T04:56:31.913Z,67.10
2023-05-05T04:59:00.362Z,66.02
2023-05-05T05:01:29.655Z,64.93
2023-05-05T05:03:58.321Z,64.47
2023-05-05T05:06:28.675Z,64.14
2023-05-05T05:08:57.751Z,64.05
2023-05-05T05:11:26.602Z,62.83
2023-05-05T05:13:55.144Z,61.87
2023-05-05T05:16:25.120Z,60.59
2023-05-05T05:18:53.720Z,59.54
2023-05-05T05:21:22.548Z,57.98
2023-05-05T05:23:51.434Z,57.95
2023-05-05T05:26:20.052Z,56.71
2023-05-05T05:28:48.845Z,55.91
2023-05-05T05:31:17.974Z,54.75
2023-05-05T05:33:46.681Z,53.43
2023-05-05T05:36:15.715Z,52.31
2023-05-05T05:38:44.804Z,51.93
2023-05-05T05:47:49.018Z,48.84
2023-05-05T05:50:18.679Z,47.40
2023-05-05T05:52:47.192Z,46.93
2023-05-05T05:55:16.052Z,46.02
2023-05-05T05:57:44.932Z,45.20
2023-05-05T06:00:16.115Z,44.16
2023-05-05T06:02:46.197Z,43.65
2023-05-05T06:05:17.613Z,43.61
2023-05-05T06:07:46.525Z,43.59
2023-05-05T06:10:27.298Z,43.19
2023-05-05T06:13:00.798Z,42.45
2023-05-05T06:15:29.576Z,42.02
2023-05-05T06:17:58.801Z,41.45
2023-05-05T06:20:27.976Z,40.73
2023-05-05T06:22:56.462Z,40.88
2023-05-05T06:25:25.686Z,40.04
2023-05-05T06:27:54.300Z,40.03
2023-05-05T06:30:22.800Z,39.60
2023-05-05T06:32:51.329Z,39.30
2023-05-05T06:35:19.867Z,38.66
2023-05-05T06:37:48.440Z,37.86
2023-05-05T06:40:17.230Z,37.15
2023-05-05T06:42:45.643Z,37.51
2023-05-05T06:45:18.269Z,37.12
2023-05-05T06:47:46.789Z,37.19
2023-05-05T06:50:15.446Z,37.04
2023-05-05T06:52:43.923Z,37.13
2023-05-05T06:55:12.313Z,36.81
2023-05-05T06:57:40.866Z,36.91
2023-05-05T07:00:11.679Z,35.98
2023-05-05T07:02:40.276Z,35.78
2023-05-05T07:05:09.278Z,35.47
2023-05-05T07:07:38.462Z,34.50
2023-05-05T07:10:09.579Z,34.16
2023-05-05T07:12:38.259Z,34.05
2023-05-05T07:15:23.503Z,33.95
2023-05-05T07:17:55.877Z,34.18
2023-05-05T07:20:24.743Z,33.34
2023-05-05T07:22:53.534Z,33.10
2023-05-05T07:25:22.403Z,32.27
2023-05-05T07:27:51.037Z,32.09
2023-05-05T07:30:20.381Z,32.30
2023-05-05T07:32:49.310Z,31.87
2023-05-05T07:35:18.141Z,31.21
2023-05-05T07:37:46.838Z,30.94
2023-05-05T07:40:15.392Z,30.70
2023-05-05T07:42:43.839Z,29.67
2023-05-05T07:45:12.259Z,28.68
2023-05-05T07:47:40.770Z,28.25
2023-05-05T07:50:10.478Z,28.76
2023-05-05T07:55:10.748Z,28.33
2023-05-05T07:57:39.356Z,27.88
2023-05-05T08:00:12.702Z,28.24
2023-05-05T08:02:41.743Z,27.75
2023-05-05T08:05:11.406Z,27.39
2023-05-05T08:07:40.637Z,25.51
2023-05-05T08:10:11.356Z,26.04
2023-05-05T08:12:40.075Z,25.43
2023-05-05T08:15:10.251Z,25.30
2023-05-05T08:17:46.507Z,25.28
2023-05-05T08:20:15.465Z,25.99
2023-05-05T08:22:44.391Z,26.35
2023-05-05T08:25:13.968Z,26.04
2023-05-05T08:27:43.074Z,25.78
2023-05-05T08:30:12.654Z,25.84
2023-05-05T08:32:41.289Z,25.76
2023-05-05T08:35:11.088Z,25.78
2023-05-05T08:37:39.834Z,25.08
2023-05-05T08:40:13.394Z,25.83
2023-05-05T08:42:42.279Z,25.90
2023-05-05T08:45:11.916Z,25.50
2023-05-05T08:47:42.422Z,25.65
2023-05-05T08:50:12.180Z,25.52
2023-05-05T08:52:43.267Z,25.39
2023-05-05T08:55:17.796Z,24.86
2023-05-05T08:57:51.542Z,24.63
2023-05-05T09:00:21.424Z,25.01
2023-05-05T09:02:50.442Z,24.57
2023-05-05T09:05:19.145Z,24.84
2023-05-05T09:07:48.248Z,25.09
2023-05-05T09:10:17.383Z,24.93
2023-05-05T09:12:46.031Z,24.88
2023-05-05T09:15:17.711Z,25.33
2023-05-05T09:17:46.414Z,24.50
2023-05-05T09:20:15.623Z,24.19
2023-05-05T09:22:45.501Z,24.29
2023-05-05T09:25:15.739Z,24.64
2023-05-05T09:27:46.250Z,24.50
2023-05-05T09:30:17.152Z,24.29
2023-05-05T09:32:47.337Z,23.25
2023-05-05T09:35:16.902Z,23.00
2023-05-05T09:37:45.836Z,23.21
2023-05-05T09:40:17.218Z,22.95
2023-05-05T09:42:46.609Z,23.82
2023-05-05T09:45:27.862Z,23.91
2023-05-05T09:47:59.869Z,23.49
2023-05-05T09:50:29.884Z,23.15
2023-05-05T09:52:59.444Z,22.78
2023-05-05T09:55:28.394Z,22.66
2023-05-05T09:58:16.434Z,23.03
2023-05-05T10:00:45.432Z,23.20
2023-05-05T10:03:14.136Z,22.70
2023-05-05T10:05:51.046Z,23.04
2023-05-05T10:08:21.075Z,23.44
2023-05-05T10:10:58.866Z,22.70
2023-05-05T10:13:28.522Z,22.42
2023-05-05T10:15:57.860Z,22.03
2023-05-05T10:18:27.810Z,22.35
2023-05-05T10:21:00.050Z,22.48
2023-05-05T10:23:35.851Z,22.37
2023-05-05T10:26:07.164Z,22.38
2023-05-05T10:28:41.439Z,22.77
2023-05-05T10:31:25.178Z,22.60
2023-05-05T10:34:00.327Z,22.75
2023-05-05T10:36:30.047Z,22.71
2023-05-05T10:39:00.506Z,22.45
2023-05-05T10:41:30.262Z,22.20
2023-05-05T10:44:00.020Z,22.23
2023-05-05T10:46:30.242Z,23.20
2023-05-05T10:49:09.689Z,23.64
2023-05-05T10:51:47.015Z,23.45
2023-05-05T10:54:28.120Z,24.30
2023-05-05T10:56:57.773Z,24.05
2023-05-05T10:59:46.917Z,24.75
2023-05-05T11:02:25.844Z,24.46
2023-05-05T11:05:14.491Z,24.03
2023-05-05T11:07:43.699Z,23.78
2023-05-05T11:10:14.246Z,23.93
2023-05-05T11:13:11.246Z,22.67
2023-05-05T11:15:40.874Z,22.64
2023-05-05T11:18:29.796Z,23.60
2023-05-05T11:21:08.347Z,24.44
2023-05-05T11:23:36.816Z,25.16
2023-05-05T11:26:05.784Z,26.13
2023-05-05T11:28:34.429Z,26.64
2023-05-05T11:31:19.404Z,26.90
2023-05-05T11:33:48.275Z,26.75
2023-05-05T11:36:17.885Z,25.94
2023-05-05T11:39:07.975Z,25.91
2023-05-05T11:41:57.528Z,25.52
2023-05-05T11:44:32.110Z,26.16
2023-05-05T11:48:02.931Z,26.68
2023-05-05T11:50:33.693Z,26.68
2023-05-05T11:53:02.389Z,26.32
2023-05-05T11:55:30.810Z,26.47
2023-05-05T11:57:59.267Z,27.04
2023-05-05T12:00:33.943Z,27.14
2023-05-05T12:03:03.632Z,26.58
2023-05-05T12:05:33.581Z,26.94
2023-05-05T12:08:03.603Z,27.56
2023-05-05T12:10:33.449Z,27.47
2023-05-05T12:13:01.841Z,27.45
2023-05-05T12:15:32.235Z,27.51
2023-05-05T12:18:02.768Z,27.35
2023-05-05T12:20:33.208Z,27.85
2023-05-05T12:23:04.992Z,27.71
2023-05-05T12:25:36.632Z,27.60
2023-05-05T12:28:07.065Z,27.16
2023-05-05T12:30:36.309Z,26.70
2023-05-05T12:33:06.699Z,27.36
2023-05-05T12:35:35.632Z,27.29
2023-05-05T12:38:04.117Z,27.30
2023-05-05T12:40:53.270Z,27.02
2023-05-05T12:43:29.872Z,26.97
2023-05-05T12:46:09.007Z,26.97
2023-05-05T12:48:39.120Z,26.92
2023-05-05T12:51:16.016Z,27.34
2023-05-05T12:53:45.519Z,27.47
2023-05-05T12:56:35.254Z,27.44
2023-05-05T12:59:05.437Z,27.76
2023-05-05T13:01:34.630Z,27.51
2023-05-05T13:04:08.159Z,27.33
2023-05-05T13:06:37.126Z,26.80
2023-05-05T13:09:06.496Z,27.26
2023-05-05T13:11:38.881Z,27.12
2023-05-05T13:14:08.312Z,27.47
2023-05-05T13:16:36.670Z,27.53
2023-05-05T13:19:05.178Z,27.37
2023-05-05T13:21:33.547Z,27.35
2023-05-05T13:24:19.116Z,27.15
2023-05-05T13:26:51.108Z,27.45
2023-05-05T13:29:19.961Z,27.11
2023-05-05T13:31:49.293Z,27.63
2023-05-05T13:34:17.641Z,27.38
2023-05-05T13:36:46.021Z,27.13
2023-05-05T13:39:14.496Z,26.91
2023-05-05T13:41:44.084Z,27.40
2023-05-05T13:44:13.431Z,27.47
2023-05-05T13:46:42.078Z,26.94
2023-05-05T13:49:10.597Z,26.92
2023-05-05T13:51:39.057Z,27.09
2023-05-05T13:54:07.917Z,27.43
2023-05-05T13:56:36.520Z,28.46
2023-05-05T13:59:05.002Z,27.67
2023-05-05T14:01:33.572Z,27.49
2023-05-05T14:04:05.185Z,27.47
2023-05-05T14:06:35.034Z,27.37
2023-05-05T14:09:05.220Z,27.68
2023-05-05T14:11:33.847Z,28.12
2023-05-05T14:14:02.436Z,28.32
2023-05-05T14:16:31.137Z,27.66
2023-05-05T14:18:59.777Z,27.82
2023-05-05T14:21:28.239Z,28.22
2023-05-05T14:23:57.157Z,28.11
2023-05-05T14:26:26.651Z,28.64
2023-05-05T14:28:56.105Z,28.64
2023-05-05T14:31:24.571Z,28.28
2023-05-05T14:33:53.099Z,28.58
2023-05-05T14:36:21.978Z,28.06
2023-05-05T14:38:50.526Z,27.93
2023-05-05T14:41:19.225Z,28.26
2023-05-05T14:43:48.916Z,28.22
2023-05-05T14:46:19.865Z,27.96
2023-05-05T14:48:52.245Z,28.12
2023-05-05T14:51:20.783Z,28.15
2023-05-05T14:53:51.732Z,28.40
2023-05-05T14:56:22.188Z,28.35
2023-05-05T14:58:50.810Z,28.17
2023-05-05T15:01:24.336Z,27.92
2023-05-05T15:03:53.327Z,28.01
2023-05-05T15:06:21.890Z,28.12
2023-05-05T15:08:51.720Z,28.26
2023-05-05T15:11:20.163Z,28.03
2023-05-05T15:13:48.906Z,28.10
2023-05-05T15:16:17.416Z,28.28
2023-05-05T15:18:46.002Z,28.44
2023-05-05T15:21:14.757Z,28.89
2023-05-05T15:23:45.721Z,28.64
2023-05-05T15:26:14.139Z,28.51
2023-05-05T15:28:42.505Z,28.70
2023-05-05T15:31:11.023Z,28.45
2023-05-05T15:33:39.930Z,29.19
2023-05-05T15:36:10.082Z,29.82
2023-05-05T15:38:43.281Z,29.44
2023-05-05T15:41:11.798Z,29.45
2023-05-05T15:43:40.518Z,29.43
2023-05-05T15:46:08.990Z,29.06
2023-05-05T15:48:37.475Z,29.25
2023-05-05T15:51:06.076Z,30.36
2023-05-05T15:53:34.432Z,30.10
2023-05-05T15:56:02.857Z,29.51
2023-05-05T15:58:31.754Z,29.54
2023-05-05T16:01:00.186Z,29.87
2023-05-05T16:03:28.966Z,29.89
2023-05-05T16:05:58.001Z,29.79
2023-05-05T16:08:26.398Z,30.20
2023-05-05T16:10:57.674Z,30.20
2023-05-05T16:13:26.531Z,29.73
2023-05-05T16:15:55.532Z,29.89
2023-05-05T16:18:24.047Z,30.93
2023-05-05T16:20:52.481Z,32.09
2023-05-05T16:23:22.182Z,31.39
2023-05-05T16:25:52.023Z,31.70
2023-05-05T16:28:20.561Z,31.92
2023-05-05T16:30:52.138Z,32.57
2023-05-05T16:33:21.091Z,32.45
2023-05-05T16:35:49.664Z,31.84
2023-05-05T16:38:18.060Z,32.63
2023-05-05T16:40:46.650Z,31.99
2023-05-05T16:43:15.193Z,32.33
2023-05-05T16:45:43.630Z,33.15
2023-05-05T16:48:13.180Z,33.74
2023-05-05T16:50:41.774Z,34.07
2023-05-05T16:53:10.637Z,33.97
2023-05-05T16:55:39.092Z,34.41
2023-05-05T16:58:08.136Z,35.04
2023-05-05T17:00:36.968Z,35.35
2023-05-05T17:03:05.776Z,35.11
2023-05-05T17:05:34.531Z,35.36
2023-05-05T17:08:03.338Z,35.52
2023-05-05T17:10:31.927Z,35.73
2023-05-05T17:13:00.302Z,35.86
2023-05-05T17:15:28.858Z,36.83
2023-05-05T17:17:57.269Z,38.43
2023-05-05T17:20:26.211Z,39.70
2023-05-05T17:22:54.999Z,36.78
2023-05-05T17:25:25.199Z,35.39
2023-05-05T17:27:53.814Z,35.20
2023-05-05T17:30:22.758Z,35.23
2023-05-05T17:32:52.033Z,35.34
2023-05-05T17:35:21.192Z,35.25
2023-05-05T17:37:49.679Z,35.33
2023-05-05T17:40:18.329Z,35.66
2023-05-05T17:42:46.756Z,36.13
2023-05-05T17:45:15.518Z,36.16
2023-05-05T17:47:44.077Z,36.49
2023-05-05T17:50:12.971Z,36.40
2023-05-05T17:52:42.542Z,36.50
2023-05-05T17:55:11.847Z,36.38
2023-05-05T17:57:40.638Z,36.41
2023-05-05T18:00:13.155Z,37.20
2023-05-05T18:02:42.971Z,37.88
2023-05-05T18:05:12.730Z,38.70
2023-05-05T18:07:41.657Z,38.91
2023-05-05T18:10:11.365Z,39.33
2023-05-05T18:12:39.990Z,39.52
2023-05-05T18:15:10.298Z,40.32
2023-05-05T18:17:39.206Z,40.32
2023-05-05T18:20:10.130Z,41.14
2023-05-05T18:22:38.591Z,41.89
2023-05-05T18:25:09.648Z,42.30
2023-05-05T18:27:39.226Z,42.26
2023-05-05T18:30:09.477Z,42.50
2023-05-05T18:32:39.372Z,42.61
2023-05-05T18:35:21.881Z,43.07
2023-05-05T18:37:56.868Z,43.21
2023-05-05T18:40:26.720Z,43.18
2023-05-05T18:42:56.204Z,43.62
2023-05-05T18:45:28.461Z,43.72
2023-05-05T18:47:58.540Z,43.79
2023-05-05T18:50:27.471Z,44.37
2023-05-05T18:52:56.107Z,44.60
2023-05-05T18:55:25.085Z,45.29
2023-05-05T18:57:53.526Z,45.48
2023-05-05T19:00:22.260Z,45.60
2023-05-05T19:02:56.952Z,45.79
2023-05-05T19:05:35.461Z,46.37
2023-05-05T19:08:06.737Z,46.81
2023-05-05T19:10:35.952Z,46.96
2023-05-05T19:13:12.013Z,46.98
2023-05-05T19:15:42.467Z,47.23
2023-05-05T19:18:38.321Z,47.34
2023-05-05T19:21:10.861Z,47.45
2023-05-05T19:23:40.297Z,47.48
2023-05-05T19:26:09.708Z,47.60
2023-05-05T19:28:38.271Z,47.85
2023-05-05T19:31:08.001Z,47.97
2023-05-05T19:33:39.417Z,48.22
2023-05-05T19:36:08.501Z,48.36
2023-05-05T19:38:43.715Z,48.87
2023-05-05T19:41:17.171Z,49.28
2023-05-05T19:43:45.975Z,49.46
2023-05-05T19:46:20.112Z,49.77
2023-05-05T19:48:53.734Z,50.33
2023-05-05T19:51:31.242Z,50.04
2023-05-05T19:53:59.870Z,49.84
2023-05-05T19:56:29.162Z,49.91
2023-05-05T19:59:06.055Z,50.04
2023-05-05T20:01:35.508Z,50.16
2023-05-05T20:04:04.208Z,50.55
2023-05-05T20:06:32.711Z,50.89
2023-05-05T20:09:01.649Z,50.97
2023-05-05T20:11:30.729Z,51.04
2023-05-05T20:13:59.303Z,51.04
2023-05-05T20:16:27.839Z,51.21
2023-05-05T20:18:56.492Z,51.62
2023-05-05T20:21:25.230Z,51.75
2023-05-05T20:23:54.233Z,51.94
2023-05-05T20:26:23.764Z,52.20
2023-05-05T20:28:52.222Z,52.58
2023-05-05T20:31:20.973Z,52.74
2023-05-05T20:33:49.843Z,52.86
2023-05-05T20:36:18.703Z,52.86
2023-05-05T20:38:47.260Z,53.10
2023-05-05T20:41:17.126Z,53.16
2023-05-05T20:43:45.963Z,53.38
2023-05-05T20:46:14.368Z,53.73
2023-05-05T20:48:43.256Z,53.64
2023-05-05T20:51:11.718Z,53.94
2023-05-05T20:53:40.288Z,54.01
2023-05-05T20:56:09.209Z,54.13
2023-05-05T20:58:37.845Z,54.36
2023-05-05T21:01:06.357Z,54.21
2023-05-05T21:03:36.966Z,54.57
2023-05-05T21:06:05.960Z,54.41
2023-05-05T21:08:34.618Z,54.48
2023-05-05T21:11:07.950Z,54.74
2023-05-05T21:13:36.308Z,54.94
2023-05-05T21:16:05.753Z,55.18
2023-05-05T21:18:34.150Z,55.35
2023-05-05T21:21:02.538Z,55.34
2023-05-05T21:23:31.148Z,55.45
2023-05-05T21:25:59.706Z,55.56
2023-05-05T21:28:28.227Z,55.69
2023-05-05T21:31:19.710Z,55.99
2023-05-05T21:33:45.983Z,55.84
2023-05-05T21:36:14.493Z,55.55
2023-05-05T21:38:42.859Z,55.25
2023-05-05T21:41:11.220Z,55.25
2023-05-05T21:43:39.643Z,55.19
2023-05-05T21:46:08.387Z,55.11
2023-05-05T21:48:38.136Z,55.28
2023-05-05T21:51:07.681Z,55.66
2023-05-05T21:53:37.083Z,55.72
2023-05-05T21:56:07.195Z,55.66
2023-05-05T21:58:35.706Z,55.46
2023-05-05T22:01:04.410Z,55.33
2023-05-05T22:03:34.520Z,55.51
2023-05-05T22:06:03.376Z,55.72
2023-05-05T22:08:31.794Z,56.02
2023-05-05T22:11:00.976Z,56.39
2023-05-05T22:13:29.497Z,56.36
2023-05-05T22:15:58.003Z,56.50
2023-05-05T22:18:26.487Z,56.42
2023-05-05T22:20:54.962Z,56.58
2023-05-05T22:23:23.437Z,56.52
2023-05-05T22:25:51.837Z,56.63
2023-05-05T22:28:20.963Z,56.75
2023-05-05T22:30:49.699Z,56.39
2023-05-05T22:33:18.129Z,56.26
2023-05-05T22:35:46.810Z,56.13
2023-05-05T22:38:15.216Z,56.09
2023-05-05T22:40:43.729Z,56.14
2023-05-05T22:43:12.200Z,56.27
2023-05-05T22:45:40.843Z,57.10
2023-05-05T22:48:09.259Z,56.99
2023-05-05T22:50:37.760Z,57.01
2023-05-05T22:53:06.801Z,56.99
2023-05-05T22:55:35.238Z,57.11
2023-05-05T22:58:03.898Z,57.32
2023-05-05T23:00:32.716Z,57.93
2023-05-05T23:03:01.652Z,58.77
2023-05-05T23:05:30.168Z,59.46
2023-05-05T23:08:00.581Z,59.91
2023-05-05T23:10:29.729Z,60.22
2023-05-05T23:12:59.597Z,60.27
2023-05-05T23:15:28.504Z,60.32
2023-05-05T23:17:56.983Z,60.45
2023-05-05T23:20:25.979Z,60.53
2023-05-05T23:22:54.766Z,60.63
2023-05-05T23:25:23.172Z,60.51
2023-05-05T23:27:51.723Z,60.41
2023-05-05T23:30:20.645Z,60.59
2023-05-05T23:32:49.199Z,60.72
2023-05-05T23:35:18.100Z,60.99
2023-05-05T23:37:46.570Z,61.08
2023-05-05T23:40:14.960Z,61.08
2023-05-05T23:42:43.348Z,61.09
2023-05-05T23:45:12.387Z,60.82
2023-05-05T23:47:40.998Z,61.01
2023-05-05T23:50:10.786Z,61.03
2023-05-05T23:52:39.161Z,61.18
2023-05-05T23:55:09.948Z,61.19
2023-05-05T23:57:38.709Z,60.80
